createdAt,value
2022-11-27T00:01:46.881Z,7.15
2022-11-27T00:07:38.735Z,7.10
2022-11-27T00:13:31.013Z,7.01
2022-11-27T00:19:23.931Z,6.98
2022-11-27T00:25:15.957Z,7.03
2022-11-27T00:31:19.217Z,7.11
2022-11-27T00:37:12.481Z,7.17
2022-11-27T00:43:05.283Z,7.24
2022-11-27T00:48:59.480Z,7.28
2022-11-27T00:54:51.761Z,7.28
2022-11-27T01:00:44.213Z,7.31
2022-11-27T01:06:37.441Z,7.35
2022-11-27T01:12:29.882Z,7.33
2022-11-27T01:18:22.150Z,7.38
2022-11-27T01:24:16.692Z,7.35
2022-11-27T01:30:09.822Z,7.28
2022-11-27T01:36:05.161Z,7.12
2022-11-27T01:41:57.341Z,6.96
2022-11-27T01:48:01.841Z,6.95
2022-11-27T01:53:55.114Z,6.91
2022-11-27T01:59:49.821Z,6.77
2022-11-27T02:05:41.928Z,6.77
2022-11-27T02:11:39.178Z,6.85
2022-11-27T02:17:42.421Z,6.93
2022-11-27T02:23:43.965Z,6.90
2022-11-27T02:29:37.007Z,6.87
2022-11-27T02:35:37.742Z,6.93
2022-11-27T02:41:39.662Z,7.05
2022-11-27T02:47:32.822Z,7.10
2022-11-27T02:53:38.053Z,6.97
2022-11-27T02:59:33.733Z,6.89
2022-11-27T03:05:33.012Z,6.92
2022-11-27T03:11:26.872Z,6.89
2022-11-27T03:18:05.302Z,6.95
2022-11-27T03:23:58.723Z,6.96
2022-11-27T03:30:05.212Z,6.97
2022-11-27T03:35:58.462Z,7.00
2022-11-27T03:42:15.933Z,7.00
2022-11-27T03:48:14.252Z,7.08
2022-11-27T03:54:15.213Z,7.09
2022-11-27T04:00:09.642Z,7.05
2022-11-27T04:06:02.165Z,7.07
2022-11-27T04:11:54.584Z,6.97
2022-11-27T04:17:47.624Z,6.95
2022-11-27T04:23:41.082Z,6.96
2022-11-27T04:29:33.723Z,6.97
2022-11-27T04:35:27.737Z,6.88
2022-11-27T04:41:20.721Z,6.82
2022-11-27T04:47:13.712Z,6.86
2022-11-27T04:53:06.760Z,7.00
2022-11-27T04:58:59.649Z,7.04
2022-11-27T05:04:51.867Z,7.06
2022-11-27T05:10:44.797Z,6.95
2022-11-27T05:16:38.175Z,6.94
2022-11-27T05:22:30.818Z,6.90
2022-11-27T05:28:26.878Z,6.98
2022-11-27T05:34:19.852Z,7.03
2022-11-27T05:40:13.126Z,7.10
2022-11-27T05:46:10.845Z,7.19
2022-11-27T05:52:03.892Z,7.18
2022-11-27T05:57:56.846Z,7.06
2022-11-27T06:03:49.004Z,7.11
2022-11-27T06:09:42.040Z,7.01
2022-11-27T06:15:37.548Z,7.04
2022-11-27T06:21:30.166Z,7.06
2022-11-27T06:27:23.884Z,6.95
2022-11-27T06:33:16.977Z,6.97
2022-11-27T06:39:12.286Z,6.88
2022-11-27T06:45:05.452Z,6.84
2022-11-27T06:51:05.606Z,6.82
2022-11-27T06:56:58.627Z,6.69
2022-11-27T07:02:53.686Z,6.66
2022-11-27T07:08:46.368Z,6.61
2022-11-27T07:14:39.008Z,6.62
2022-11-27T07:20:32.547Z,6.63
2022-11-27T07:26:27.856Z,6.60
2022-11-27T07:32:20.387Z,6.77
2022-11-27T07:38:12.777Z,7.01
2022-11-27T07:44:05.216Z,7.12
2022-11-27T07:50:00.547Z,7.30
2022-11-27T07:55:53.961Z,7.35
2022-11-27T08:01:45.637Z,7.29
2022-11-27T08:07:38.220Z,7.29
2022-11-27T08:13:31.532Z,7.54
2022-11-27T08:19:24.657Z,7.82
2022-11-27T08:25:17.347Z,7.91
2022-11-27T08:31:13.541Z,8.01
2022-11-27T08:37:07.429Z,8.16
2022-11-27T08:43:00.961Z,8.23
2022-11-27T08:48:53.211Z,8.42
2022-11-27T08:54:45.737Z,8.40
2022-11-27T09:00:39.653Z,8.85
2022-11-27T09:06:35.097Z,9.10
2022-11-27T09:12:29.049Z,9.55
2022-11-27T09:18:20.890Z,9.77
2022-11-27T09:24:13.448Z,9.57
2022-11-27T09:30:08.163Z,9.23
2022-11-27T09:36:03.520Z,9.01
2022-11-27T09:41:59.904Z,8.85
2022-11-27T09:48:06.119Z,8.59
2022-11-27T09:54:03.001Z,8.62
2022-11-27T10:00:01.707Z,9.03
2022-11-27T10:05:57.147Z,9.29
2022-11-27T10:12:10.786Z,9.10
2022-11-27T10:18:06.654Z,8.90
2022-11-27T10:24:24.689Z,9.52
2022-11-27T10:30:20.957Z,9.41
2022-11-27T10:36:24.526Z,9.51
2022-11-27T10:42:49.200Z,10.02
2022-11-27T10:48:41.941Z,10.27
2022-11-27T10:54:37.842Z,10.33
2022-11-27T11:00:30.847Z,10.47
2022-11-27T11:06:27.212Z,10.68
2022-11-27T11:12:23.590Z,10.82
2022-11-27T11:18:20.959Z,10.71
2022-11-27T11:24:21.777Z,10.67
2022-11-27T11:30:28.847Z,10.62
2022-11-27T11:36:23.064Z,10.66
2022-11-27T11:42:30.196Z,10.83
2022-11-27T11:48:25.417Z,11.06
2022-11-27T11:54:28.296Z,11.06
2022-11-27T12:00:30.173Z,10.94
2022-11-27T12:06:45.820Z,10.53
2022-11-27T12:13:04.832Z,10.60
2022-11-27T12:19:16.205Z,10.52
2022-11-27T12:25:26.879Z,10.35
2022-11-27T12:31:41.182Z,10.17
2022-11-27T12:37:51.189Z,9.83
2022-11-27T12:43:56.143Z,9.83
2022-11-27T12:49:56.401Z,9.87
2022-11-27T12:56:08.486Z,9.95
2022-11-27T13:02:11.346Z,9.82
2022-11-27T13:08:22.858Z,9.81
2022-11-27T13:14:20.039Z,9.76
2022-11-27T13:20:20.715Z,9.45
2022-11-27T13:26:26.536Z,9.26
2022-11-27T13:32:25.820Z,8.94
2022-11-27T13:38:25.180Z,9.04
2022-11-27T13:44:26.931Z,9.08
2022-11-27T13:50:28.205Z,9.01
2022-11-27T13:56:31.591Z,8.85
2022-11-27T14:02:25.510Z,8.61
2022-11-27T14:08:51.799Z,8.55
2022-11-27T14:14:45.739Z,8.44
2022-11-27T14:21:22.139Z,8.35
2022-11-27T14:27:23.748Z,8.17
2022-11-27T14:33:23.331Z,8.08
2022-11-27T14:39:30.300Z,7.94
2022-11-27T14:45:24.161Z,7.80
2022-11-27T14:51:20.069Z,7.65
2022-11-27T14:57:19.867Z,7.58
2022-11-27T15:03:18.202Z,7.53
2022-11-27T15:09:33.575Z,7.50
2022-11-27T15:15:29.234Z,7.48
2022-11-27T15:21:25.924Z,7.40
2022-11-27T15:27:21.199Z,7.32
2022-11-27T15:33:29.819Z,7.30
2022-11-27T15:39:38.500Z,7.28
2022-11-27T15:45:33.383Z,7.25
2022-11-27T15:51:26.365Z,7.25
2022-11-27T15:57:19.092Z,7.27
2022-11-27T16:03:11.612Z,7.24
2022-11-27T16:09:05.360Z,7.22
2022-11-27T16:14:57.389Z,7.22
2022-11-27T16:20:49.549Z,7.22
2022-11-27T16:26:42.471Z,7.12
2022-11-27T16:32:41.358Z,7.06
2022-11-27T16:38:34.448Z,6.96
2022-11-27T16:44:27.039Z,6.90
2022-11-27T16:50:19.369Z,6.86
2022-11-27T16:56:13.501Z,6.82
2022-11-27T17:02:06.524Z,6.74
2022-11-27T17:07:59.651Z,6.69
2022-11-27T17:13:56.397Z,6.65
2022-11-27T17:19:49.746Z,6.49
2022-11-27T17:25:43.750Z,6.51
2022-11-27T17:31:37.342Z,6.46
2022-11-27T17:37:30.559Z,6.47
2022-11-27T17:43:22.799Z,6.44
2022-11-27T17:49:16.489Z,6.43
2022-11-27T17:55:19.640Z,6.42
2022-11-27T18:01:18.092Z,6.40
2022-11-27T18:07:10.653Z,6.41
2022-11-27T18:13:03.822Z,6.42
2022-11-27T18:18:57.148Z,6.38
2022-11-27T18:24:49.700Z,6.41
2022-11-27T18:30:41.609Z,6.40
2022-11-27T18:36:34.809Z,6.31
2022-11-27T18:42:27.573Z,6.30
2022-11-27T18:48:21.855Z,6.27
2022-11-27T18:54:14.889Z,6.26
2022-11-27T19:00:08.969Z,6.20
2022-11-27T19:06:02.873Z,6.17
2022-11-27T19:11:56.023Z,6.11
2022-11-27T19:17:48.559Z,6.16
2022-11-27T19:23:42.016Z,6.13
2022-11-27T19:29:35.038Z,6.08
2022-11-27T19:35:27.549Z,6.04
2022-11-27T19:41:20.094Z,5.90
2022-11-27T19:47:12.559Z,5.74
2022-11-27T19:53:07.241Z,5.63
2022-11-27T19:59:02.128Z,5.52
2022-11-27T20:04:54.572Z,5.45
2022-11-27T20:10:50.614Z,5.42
2022-11-27T20:16:42.884Z,5.42
2022-11-27T20:22:36.780Z,5.47
2022-11-27T20:28:29.313Z,5.46
2022-11-27T20:34:22.701Z,5.40
2022-11-27T20:40:15.149Z,5.34
2022-11-27T20:46:08.107Z,5.27
2022-11-27T20:52:03.721Z,5.17
2022-11-27T20:57:56.180Z,5.06
2022-11-27T21:03:51.541Z,4.94
2022-11-27T21:09:44.385Z,4.79
2022-11-27T21:15:37.818Z,4.60
2022-11-27T21:21:30.718Z,4.50
2022-11-27T21:27:24.220Z,4.39
2022-11-27T21:33:17.344Z,4.30
2022-11-27T21:39:13.215Z,4.20
2022-11-27T21:45:06.299Z,4.08
2022-11-27T21:50:44.779Z,3.98
2022-11-27T21:56:40.438Z,3.97
2022-11-27T22:02:33.379Z,3.92
2022-11-27T22:08:38.526Z,3.87
2022-11-27T22:14:31.299Z,3.72
2022-11-27T22:20:24.039Z,3.69
2022-11-27T22:26:18.739Z,3.83
2022-11-27T22:32:12.308Z,3.97
2022-11-27T22:38:04.441Z,4.15
2022-11-27T22:43:59.058Z,4.41
2022-11-27T22:49:52.358Z,4.57
2022-11-27T22:55:44.089Z,4.66
2022-11-27T23:01:37.519Z,4.72
2022-11-27T23:07:30.414Z,4.86
2022-11-27T23:13:22.442Z,4.96
2022-11-27T23:19:14.413Z,4.85
2022-11-27T23:25:06.948Z,4.93
2022-11-27T23:31:28.085Z,4.85
2022-11-27T23:37:17.479Z,4.78
2022-11-27T23:43:09.587Z,4.73
2022-11-27T23:49:01.472Z,4.64
2022-11-27T23:54:53.490Z,4.53
